sensor_id;sensor_type;location;lat;lon;timestamp;temperature;humidity
58983;DHT22;44771;49.982;8.560;2023-04-24T00:02:38;11.10;99.90
58983;DHT22;44771;49.982;8.560;2023-04-24T00:07:42;11.10;99.90
58983;DHT22;44771;49.982;8.560;2023-04-24T00:12:44;11.10;99.90
58983;DHT22;44771;49.982;8.560;2023-04-24T00:17:46;11.00;99.90
58983;DHT22;44771;49.982;8.560;2023-04-24T00:22:49;11.00;99.90
58983;DHT22;44771;49.982;8.560;2023-04-24T00:27:51;11.00;99.90
58983;DHT22;44771;49.982;8.560;2023-04-24T00:32:52;11.00;99.90
58983;DHT22;44771;49.982;8.560;2023-04-24T00:37:55;10.90;99.90
58983;DHT22;44771;49.982;8.560;2023-04-24T00:42:57;10.90;99.90
58983;DHT22;44771;49.982;8.560;2023-04-24T00:48:00;10.90;99.90
58983;DHT22;44771;49.982;8.560;2023-04-24T00:53:03;10.90;99.90
58983;DHT22;44771;49.982;8.560;2023-04-24T00:58:05;10.70;99.90
58983;DHT22;44771;49.982;8.560;2023-04-24T01:03:07;10.60;99.90
58983;DHT22;44771;49.982;8.560;2023-04-24T01:08:11;10.50;99.90
58983;DHT22;44771;49.982;8.560;2023-04-24T01:13:13;10.50;99.90
58983;DHT22;44771;49.982;8.560;2023-04-24T01:18:15;10.60;99.90
58983;DHT22;44771;49.982;8.560;2023-04-24T01:23:18;10.60;99.90
58983;DHT22;44771;49.982;8.560;2023-04-24T01:28:21;10.50;99.90
58983;DHT22;44771;49.982;8.560;2023-04-24T01:33:22;10.40;99.90
58983;DHT22;44771;49.982;8.560;2023-04-24T01:38:26;10.30;99.90
58983;DHT22;44771;49.982;8.560;2023-04-24T01:43:27;10.30;99.90
58983;DHT22;44771;49.982;8.560;2023-04-24T01:48:29;10.30;99.90
58983;DHT22;44771;49.982;8.560;2023-04-24T01:53:33;10.40;99.90
58983;DHT22;44771;49.982;8.560;2023-04-24T01:58:35;10.60;99.90
58983;DHT22;44771;49.982;8.560;2023-04-24T02:03:37;10.60;99.90
58983;DHT22;44771;49.982;8.560;2023-04-24T02:08:40;10.60;99.90
58983;DHT22;44771;49.982;8.560;2023-04-24T02:13:42;10.60;99.90
58983;DHT22;44771;49.982;8.560;2023-04-24T02:18:44;10.70;99.90
58983;DHT22;44771;49.982;8.560;2023-04-24T02:23:47;10.70;99.90
58983;DHT22;44771;49.982;8.560;2023-04-24T02:28:49;10.60;99.90
58983;DHT22;44771;49.982;8.560;2023-04-24T02:33:54;10.50;99.90
58983;DHT22;44771;49.982;8.560;2023-04-24T02:38:57;10.40;99.90
58983;DHT22;44771;49.982;8.560;2023-04-24T02:43:58;10.40;99.90
58983;DHT22;44771;49.982;8.560;2023-04-24T02:49:00;10.40;99.90
58983;DHT22;44771;49.982;8.560;2023-04-24T02:54:03;10.40;99.90
58983;DHT22;44771;49.982;8.560;2023-04-24T02:59:05;10.40;99.90
58983;DHT22;44771;49.982;8.560;2023-04-24T03:04:07;10.40;99.90
58983;DHT22;44771;49.982;8.560;2023-04-24T03:09:10;10.40;99.90
58983;DHT22;44771;49.982;8.560;2023-04-24T03:14:12;10.50;99.90
58983;DHT22;44771;49.982;8.560;2023-04-24T03:19:13;10.50;99.90
58983;DHT22;44771;49.982;8.560;2023-04-24T03:24:17;10.50;99.90
58983;DHT22;44771;49.982;8.560;2023-04-24T03:29:18;10.40;99.90
58983;DHT22;44771;49.982;8.560;2023-04-24T03:34:20;10.30;99.90
58983;DHT22;44771;49.982;8.560;2023-04-24T03:39:23;10.30;99.90
58983;DHT22;44771;49.982;8.560;2023-04-24T03:44:25;10.20;99.90
58983;DHT22;44771;49.982;8.560;2023-04-24T03:49:27;10.20;99.90
58983;DHT22;44771;49.982;8.560;2023-04-24T03:54:30;10.20;99.90
58983;DHT22;44771;49.982;8.560;2023-04-24T03:59:31;10.20;99.90
58983;DHT22;44771;49.982;8.560;2023-04-24T04:04:33;10.10;99.90
58983;DHT22;44771;49.982;8.560;2023-04-24T04:09:37;10.10;99.90
58983;DHT22;44771;49.982;8.560;2023-04-24T04:14:38;10.10;99.90
58983;DHT22;44771;49.982;8.560;2023-04-24T04:19:40;10.20;99.90
58983;DHT22;44771;49.982;8.560;2023-04-24T04:24:43;10.20;99.90
58983;DHT22;44771;49.982;8.560;2023-04-24T04:29:45;10.10;99.90
58983;DHT22;44771;49.982;8.560;2023-04-24T04:34:47;10.00;99.90
58983;DHT22;44771;49.982;8.560;2023-04-24T04:39:50;10.00;99.90
58983;DHT22;44771;49.982;8.560;2023-04-24T04:44:52;9.90;99.90
58983;DHT22;44771;49.982;8.560;2023-04-24T04:49:54;9.60;99.90
58983;DHT22;44771;49.982;8.560;2023-04-24T04:54:57;9.50;99.90
58983;DHT22;44771;49.982;8.560;2023-04-24T04:59:59;9.40;99.90
58983;DHT22;44771;49.982;8.560;2023-04-24T05:05:00;9.30;99.90
58983;DHT22;44771;49.982;8.560;2023-04-24T05:10:05;9.20;99.90
58983;DHT22;44771;49.982;8.560;2023-04-24T05:15:07;9.40;99.90
58983;DHT22;44771;49.982;8.560;2023-04-24T05:20:09;9.50;99.90
58983;DHT22;44771;49.982;8.560;2023-04-24T05:25:14;9.50;99.90
58983;DHT22;44771;49.982;8.560;2023-04-24T05:30:15;9.40;99.90
58983;DHT22;44771;49.982;8.560;2023-04-24T05:35:17;9.50;99.90
58983;DHT22;44771;49.982;8.560;2023-04-24T05:40:21;9.80;99.90
58983;DHT22;44771;49.982;8.560;2023-04-24T05:45:22;9.90;99.90
58983;DHT22;44771;49.982;8.560;2023-04-24T05:50:24;10.00;99.90
58983;DHT22;44771;49.982;8.560;2023-04-24T05:55:27;9.90;99.90
58983;DHT22;44771;49.982;8.560;2023-04-24T06:00:29;9.90;99.90
58983;DHT22;44771;49.982;8.560;2023-04-24T06:05:31;9.90;99.90
58983;DHT22;44771;49.982;8.560;2023-04-24T06:10:34;9.90;99.90
58983;DHT22;44771;49.982;8.560;2023-04-24T06:15:36;9.90;99.90
58983;DHT22;44771;49.982;8.560;2023-04-24T06:20:38;9.90;99.90
58983;DHT22;44771;49.982;8.560;2023-04-24T06:25:41;9.80;99.90
58983;DHT22;44771;49.982;8.560;2023-04-24T06:30:43;9.90;99.90
58983;DHT22;44771;49.982;8.560;2023-04-24T06:35:45;10.20;99.90
58983;DHT22;44771;49.982;8.560;2023-04-24T06:40:48;10.40;99.90
58983;DHT22;44771;49.982;8.560;2023-04-24T06:45:50;10.50;99.90
58983;DHT22;44771;49.982;8.560;2023-04-24T06:50:54;10.60;99.90
58983;DHT22;44771;49.982;8.560;2023-04-24T06:55:57;10.80;99.90
58983;DHT22;44771;49.982;8.560;2023-04-24T07:00:59;11.00;99.90
58983;DHT22;44771;49.982;8.560;2023-04-24T07:06:01;11.10;99.90
58983;DHT22;44771;49.982;8.560;2023-04-24T07:11:04;11.20;99.90
58983;DHT22;44771;49.982;8.560;2023-04-24T07:16:06;11.10;99.90
58983;DHT22;44771;49.982;8.560;2023-04-24T07:21:08;11.00;99.90
58983;DHT22;44771;49.982;8.560;2023-04-24T07:26:12;10.90;99.90
58983;DHT22;44771;49.982;8.560;2023-04-24T07:31:13;11.00;99.90
58983;DHT22;44771;49.982;8.560;2023-04-24T07:36:15;11.30;99.90
58983;DHT22;44771;49.982;8.560;2023-04-24T07:41:19;11.60;99.90
58983;DHT22;44771;49.982;8.560;2023-04-24T07:46:21;11.80;99.90
58983;DHT22;44771;49.982;8.560;2023-04-24T07:51:22;12.00;99.90
58983;DHT22;44771;49.982;8.560;2023-04-24T07:56:26;12.40;99.90
58983;DHT22;44771;49.982;8.560;2023-04-24T08:01:28;12.00;99.40
58983;DHT22;44771;49.982;8.560;2023-04-24T08:06:30;11.60;99.40
58983;DHT22;44771;49.982;8.560;2023-04-24T08:11:33;11.60;99.90
58983;DHT22;44771;49.982;8.560;2023-04-24T08:16:35;11.90;99.10
58983;DHT22;44771;49.982;8.560;2023-04-24T08:21:37;12.30;99.10
58983;DHT22;44771;49.982;8.560;2023-04-24T08:26:40;12.80;97.20
58983;DHT22;44771;49.982;8.560;2023-04-24T08:31:42;13.40;96.30
58983;DHT22;44771;49.982;8.560;2023-04-24T08:36:44;13.20;94.00
58983;DHT22;44771;49.982;8.560;2023-04-24T08:41:50;12.50;95.20
58983;DHT22;44771;49.982;8.560;2023-04-24T08:46:53;12.10;96.60
58983;DHT22;44771;49.982;8.560;2023-04-24T08:51:55;13.10;95.10
58983;DHT22;44771;49.982;8.560;2023-04-24T08:57:00;13.40;93.90
58983;DHT22;44771;49.982;8.560;2023-04-24T09:02:03;12.80;94.20
58983;DHT22;44771;49.982;8.560;2023-04-24T09:07:06;12.20;95.70
58983;DHT22;44771;49.982;8.560;2023-04-24T09:12:11;12.00;96.60
58983;DHT22;44771;49.982;8.560;2023-04-24T09:17:13;11.90;97.00
58983;DHT22;44771;49.982;8.560;2023-04-24T09:22:15;12.00;96.10
58983;DHT22;44771;49.982;8.560;2023-04-24T09:27:18;12.10;97.00
58983;DHT22;44771;49.982;8.560;2023-04-24T09:32:21;12.30;96.70
58983;DHT22;44771;49.982;8.560;2023-04-24T09:37:28;12.10;96.80
58983;DHT22;44771;49.982;8.560;2023-04-24T09:42:31;11.90;97.20
58983;DHT22;44771;49.982;8.560;2023-04-24T09:47:36;11.90;97.50
58983;DHT22;44771;49.982;8.560;2023-04-24T09:52:40;11.80;97.80
58983;DHT22;44771;49.982;8.560;2023-04-24T09:57:54;11.80;98.50
58983;DHT22;44771;49.982;8.560;2023-04-24T10:02:58;12.30;97.30
58983;DHT22;44771;49.982;8.560;2023-04-24T10:08:02;12.60;97.20
58983;DHT22;44771;49.982;8.560;2023-04-24T10:13:05;12.90;96.20
58983;DHT22;44771;49.982;8.560;2023-04-24T10:18:09;12.80;96.50
58983;DHT22;44771;49.982;8.560;2023-04-24T10:23:23;12.70;96.10
58983;DHT22;44771;49.982;8.560;2023-04-24T10:28:30;12.40;97.20
58983;DHT22;44771;49.982;8.560;2023-04-24T10:33:32;12.40;98.50
58983;DHT22;44771;49.982;8.560;2023-04-24T10:38:34;13.00;98.50
58983;DHT22;44771;49.982;8.560;2023-04-24T10:43:39;13.40;96.30
58983;DHT22;44771;49.982;8.560;2023-04-24T10:48:43;13.10;96.10
58983;DHT22;44771;49.982;8.560;2023-04-24T10:53:44;12.80;99.90
58983;DHT22;44771;49.982;8.560;2023-04-24T10:58:50;12.20;99.90
58983;DHT22;44771;49.982;8.560;2023-04-24T11:03:55;11.60;99.90
58983;DHT22;44771;49.982;8.560;2023-04-24T11:09:02;11.60;99.90
58983;DHT22;44771;49.982;8.560;2023-04-24T11:14:07;11.60;99.90
58983;DHT22;44771;49.982;8.560;2023-04-24T11:19:10;11.80;99.90
58983;DHT22;44771;49.982;8.560;2023-04-24T11:24:24;12.30;99.90
58983;DHT22;44771;49.982;8.560;2023-04-24T11:29:44;12.70;99.90
58983;DHT22;44771;49.982;8.560;2023-04-24T11:34:47;12.60;99.90
58983;DHT22;44771;49.982;8.560;2023-04-24T11:39:53;12.40;99.90
58983;DHT22;44771;49.982;8.560;2023-04-24T11:44:56;12.20;99.90
58983;DHT22;44771;49.982;8.560;2023-04-24T11:50:04;11.60;99.90
58983;DHT22;44771;49.982;8.560;2023-04-24T11:55:26;11.80;99.90
58983;DHT22;44771;49.982;8.560;2023-04-24T12:00:32;12.40;99.90
58983;DHT22;44771;49.982;8.560;2023-04-24T12:05:34;12.80;99.90
58983;DHT22;44771;49.982;8.560;2023-04-24T12:10:36;13.50;99.90
58983;DHT22;44771;49.982;8.560;2023-04-24T12:15:40;14.40;99.90
58983;DHT22;44771;49.982;8.560;2023-04-24T12:20:42;13.90;99.90
58983;DHT22;44771;49.982;8.560;2023-04-24T12:25:44;14.50;99.90
58983;DHT22;44771;49.982;8.560;2023-04-24T12:30:48;13.70;99.60
58983;DHT22;44771;49.982;8.560;2023-04-24T12:35:52;11.90;99.90
58983;DHT22;44771;49.982;8.560;2023-04-24T12:46:49;10.10;99.90
58983;DHT22;44771;49.982;8.560;2023-04-24T12:51:51;9.90;99.90
58983;DHT22;44771;49.982;8.560;2023-04-24T12:56:52;10.00;99.90
58983;DHT22;44771;49.982;8.560;2023-04-24T13:01:56;10.50;99.90
58983;DHT22;44771;49.982;8.560;2023-04-24T13:06:57;11.40;99.90
58983;DHT22;44771;49.982;8.560;2023-04-24T13:11:59;12.20;99.90
58983;DHT22;44771;49.982;8.560;2023-04-24T13:17:03;13.00;99.90
58983;DHT22;44771;49.982;8.560;2023-04-24T13:22:05;13.70;99.90
58983;DHT22;44771;49.982;8.560;2023-04-24T13:27:07;13.80;97.70
58983;DHT22;44771;49.982;8.560;2023-04-24T13:32:10;14.00;96.60
58983;DHT22;44771;49.982;8.560;2023-04-24T13:37:12;14.10;95.40
58983;DHT22;44771;49.982;8.560;2023-04-24T13:42:14;14.10;90.10
58983;DHT22;44771;49.982;8.560;2023-04-24T13:47:17;13.50;93.70
58983;DHT22;44771;49.982;8.560;2023-04-24T13:52:19;12.30;99.90
58983;DHT22;44771;49.982;8.560;2023-04-24T13:57:21;11.50;99.90
58983;DHT22;44771;49.982;8.560;2023-04-24T14:02:24;11.50;99.90
58983;DHT22;44771;49.982;8.560;2023-04-24T14:07:26;12.00;99.90
58983;DHT22;44771;49.982;8.560;2023-04-24T14:12:29;13.10;98.50
58983;DHT22;44771;49.982;8.560;2023-04-24T14:17:32;14.40;96.80
58983;DHT22;44771;49.982;8.560;2023-04-24T14:22:34;14.20;92.90
58983;DHT22;44771;49.982;8.560;2023-04-24T14:27:38;14.10;92.90
58983;DHT22;44771;49.982;8.560;2023-04-24T14:32:41;14.10;91.70
58983;DHT22;44771;49.982;8.560;2023-04-24T14:37:43;14.00;90.80
58983;DHT22;44771;49.982;8.560;2023-04-24T14:42:45;13.80;90.20
58983;DHT22;44771;49.982;8.560;2023-04-24T14:47:48;14.00;88.00
58983;DHT22;44771;49.982;8.560;2023-04-24T14:52:49;13.90;86.30
58983;DHT22;44771;49.982;8.560;2023-04-24T14:57:51;13.50;83.60
58983;DHT22;44771;49.982;8.560;2023-04-24T15:02:55;13.50;85.50
58983;DHT22;44771;49.982;8.560;2023-04-24T15:07:57;13.40;84.50
58983;DHT22;44771;49.982;8.560;2023-04-24T15:12:58;13.40;86.40
58983;DHT22;44771;49.982;8.560;2023-04-24T15:18:02;13.50;86.90
58983;DHT22;44771;49.982;8.560;2023-04-24T15:23:03;13.80;86.30
58983;DHT22;44771;49.982;8.560;2023-04-24T15:28:05;14.00;86.10
58983;DHT22;44771;49.982;8.560;2023-04-24T15:33:08;14.10;84.80
58983;DHT22;44771;49.982;8.560;2023-04-24T15:38:10;14.30;84.10
58983;DHT22;44771;49.982;8.560;2023-04-24T15:43:12;14.20;82.50
58983;DHT22;44771;49.982;8.560;2023-04-24T15:48:15;14.30;81.20
58983;DHT22;44771;49.982;8.560;2023-04-24T15:53:16;13.80;80.10
58983;DHT22;44771;49.982;8.560;2023-04-24T15:58:20;13.40;82.60
58983;DHT22;44771;49.982;8.560;2023-04-24T16:03:23;13.30;84.40
58983;DHT22;44771;49.982;8.560;2023-04-24T16:08:25;13.40;83.20
58983;DHT22;44771;49.982;8.560;2023-04-24T16:13:29;13.20;84.50
58983;DHT22;44771;49.982;8.560;2023-04-24T16:18:33;13.10;86.40
58983;DHT22;44771;49.982;8.560;2023-04-24T16:23:34;12.90;89.40
58983;DHT22;44771;49.982;8.560;2023-04-24T16:28:36;12.90;89.20
58983;DHT22;44771;49.982;8.560;2023-04-24T16:33:40;12.70;89.90
58983;DHT22;44771;49.982;8.560;2023-04-24T16:38:47;12.70;89.10
58983;DHT22;44771;49.982;8.560;2023-04-24T16:43:49;12.70;90.50
58983;DHT22;44771;49.982;8.560;2023-04-24T16:48:53;12.80;90.90
58983;DHT22;44771;49.982;8.560;2023-04-24T16:53:55;13.00;91.00
58983;DHT22;44771;49.982;8.560;2023-04-24T16:58:57;13.00;90.70
58983;DHT22;44771;49.982;8.560;2023-04-24T17:04:00;13.10;90.20
58983;DHT22;44771;49.982;8.560;2023-04-24T17:09:05;13.00;91.60
58983;DHT22;44771;49.982;8.560;2023-04-24T17:14:07;12.70;92.00
58983;DHT22;44771;49.982;8.560;2023-04-24T17:19:10;12.50;92.30
58983;DHT22;44771;49.982;8.560;2023-04-24T17:24:11;12.40;92.80
58983;DHT22;44771;49.982;8.560;2023-04-24T17:29:13;12.40;92.80
58983;DHT22;44771;49.982;8.560;2023-04-24T17:34:17;12.10;93.60
58983;DHT22;44771;49.982;8.560;2023-04-24T17:39:19;12.10;94.20
58983;DHT22;44771;49.982;8.560;2023-04-24T17:44:21;12.00;95.60
58983;DHT22;44771;49.982;8.560;2023-04-24T17:49:24;11.90;97.70
58983;DHT22;44771;49.982;8.560;2023-04-24T17:54:26;11.50;99.90
58983;DHT22;44771;49.982;8.560;2023-04-24T17:59:27;11.10;99.90
58983;DHT22;44771;49.982;8.560;2023-04-24T18:04:30;10.90;99.90
58983;DHT22;44771;49.982;8.560;2023-04-24T18:09:32;10.70;99.90
58983;DHT22;44771;49.982;8.560;2023-04-24T18:14:34;10.50;99.90
58983;DHT22;44771;49.982;8.560;2023-04-24T18:19:37;10.40;99.90
58983;DHT22;44771;49.982;8.560;2023-04-24T18:24:39;10.10;99.90
58983;DHT22;44771;49.982;8.560;2023-04-24T18:29:41;10.00;99.90
58983;DHT22;44771;49.982;8.560;2023-04-24T18:34:44;10.00;99.90
58983;DHT22;44771;49.982;8.560;2023-04-24T18:39:46;9.90;99.90
58983;DHT22;44771;49.982;8.560;2023-04-24T18:44:47;9.90;99.90
58983;DHT22;44771;49.982;8.560;2023-04-24T18:49:51;9.80;99.90
58983;DHT22;44771;49.982;8.560;2023-04-24T18:54:53;9.80;99.90
58983;DHT22;44771;49.982;8.560;2023-04-24T18:59:54;9.80;99.90
58983;DHT22;44771;49.982;8.560;2023-04-24T19:04:57;9.90;99.90
58983;DHT22;44771;49.982;8.560;2023-04-24T19:09:59;9.90;99.90
58983;DHT22;44771;49.982;8.560;2023-04-24T19:15:01;9.80;99.90
58983;DHT22;44771;49.982;8.560;2023-04-24T19:20:06;9.70;99.90
58983;DHT22;44771;49.982;8.560;2023-04-24T19:25:08;9.80;99.90
58983;DHT22;44771;49.982;8.560;2023-04-24T19:30:10;9.70;99.90
58983;DHT22;44771;49.982;8.560;2023-04-24T19:35:14;9.50;99.90
58983;DHT22;44771;49.982;8.560;2023-04-24T19:40:16;9.20;99.90
58983;DHT22;44771;49.982;8.560;2023-04-24T19:45:17;9.20;99.90
58983;DHT22;44771;49.982;8.560;2023-04-24T19:50:21;9.10;99.90
58983;DHT22;44771;49.982;8.560;2023-04-24T19:55:23;9.00;99.90
58983;DHT22;44771;49.982;8.560;2023-04-24T20:00:24;9.00;99.90
58983;DHT22;44771;49.982;8.560;2023-04-24T20:05:28;9.00;99.90
58983;DHT22;44771;49.982;8.560;2023-04-24T20:10:30;9.00;99.90
58983;DHT22;44771;49.982;8.560;2023-04-24T20:15:31;8.80;99.90
58983;DHT22;44771;49.982;8.560;2023-04-24T20:20:35;8.70;99.90
58983;DHT22;44771;49.982;8.560;2023-04-24T20:25:36;8.40;99.90
58983;DHT22;44771;49.982;8.560;2023-04-24T20:30:38;8.40;99.90
58983;DHT22;44771;49.982;8.560;2023-04-24T20:35:41;8.40;99.90
58983;DHT22;44771;49.982;8.560;2023-04-24T20:40:43;8.40;99.90
58983;DHT22;44771;49.982;8.560;2023-04-24T20:45:58;8.40;99.90
58983;DHT22;44771;49.982;8.560;2023-04-24T20:51:01;8.50;99.90
58983;DHT22;44771;49.982;8.560;2023-04-24T20:56:03;8.60;99.90
58983;DHT22;44771;49.982;8.560;2023-04-24T21:01:05;8.60;99.90
58983;DHT22;44771;49.982;8.560;2023-04-24T21:06:09;8.60;99.90
58983;DHT22;44771;49.982;8.560;2023-04-24T21:11:10;8.70;99.90
58983;DHT22;44771;49.982;8.560;2023-04-24T21:16:12;8.70;99.90
58983;DHT22;44771;49.982;8.560;2023-04-24T21:21:15;8.70;99.90
58983;DHT22;44771;49.982;8.560;2023-04-24T21:26:17;8.70;99.90
58983;DHT22;44771;49.982;8.560;2023-04-24T21:31:19;8.80;99.90
58983;DHT22;44771;49.982;8.560;2023-04-24T21:36:22;8.70;99.90
58983;DHT22;44771;49.982;8.560;2023-04-24T21:41:24;8.70;99.90
58983;DHT22;44771;49.982;8.560;2023-04-24T21:46:26;8.90;99.90
58983;DHT22;44771;49.982;8.560;2023-04-24T21:51:29;8.90;99.90
58983;DHT22;44771;49.982;8.560;2023-04-24T21:56:31;8.90;99.90
58983;DHT22;44771;49.982;8.560;2023-04-24T22:01:33;8.90;99.90
58983;DHT22;44771;49.982;8.560;2023-04-24T22:06:36;8.80;99.90
58983;DHT22;44771;49.982;8.560;2023-04-24T22:11:37;8.70;99.90
58983;DHT22;44771;49.982;8.560;2023-04-24T22:16:39;8.60;99.90
58983;DHT22;44771;49.982;8.560;2023-04-24T22:21:42;8.60;99.90
58983;DHT22;44771;49.982;8.560;2023-04-24T22:26:44;8.60;99.90
58983;DHT22;44771;49.982;8.560;2023-04-24T22:31:46;8.70;99.90
58983;DHT22;44771;49.982;8.560;2023-04-24T22:36:49;8.50;99.90
58983;DHT22;44771;49.982;8.560;2023-04-24T22:41:51;8.40;99.90
58983;DHT22;44771;49.982;8.560;2023-04-24T22:46:53;8.20;99.90
58983;DHT22;44771;49.982;8.560;2023-04-24T22:51:56;8.10;99.90
58983;DHT22;44771;49.982;8.560;2023-04-24T22:56:58;7.90;99.90
58983;DHT22;44771;49.982;8.560;2023-04-24T23:02:00;7.70;99.90
58983;DHT22;44771;49.982;8.560;2023-04-24T23:07:03;7.50;99.90
58983;DHT22;44771;49.982;8.560;2023-04-24T23:12:08;7.60;99.90
58983;DHT22;44771;49.982;8.560;2023-04-24T23:17:10;7.50;99.90
58983;DHT22;44771;49.982;8.560;2023-04-24T23:22:13;7.40;99.90
58983;DHT22;44771;49.982;8.560;2023-04-24T23:27:15;7.40;99.90
58983;DHT22;44771;49.982;8.560;2023-04-24T23:32:16;7.40;99.90
58983;DHT22;44771;49.982;8.560;2023-04-24T23:37:19;7.40;99.90
58983;DHT22;44771;49.982;8.560;2023-04-24T23:42:22;7.30;99.90
58983;DHT22;44771;49.982;8.560;2023-04-24T23:47:23;7.30;99.90
58983;DHT22;44771;49.982;8.560;2023-04-24T23:52:26;7.20;99.90
58983;DHT22;44771;49.982;8.560;2023-04-24T23:57:28;7.10;99.90
